createdAt,value
2019-06-07T00:03:47.843Z,24.32
2019-06-07T00:06:25.259Z,21.23
2019-06-07T00:08:57.563Z,26.37
2019-06-07T00:14:05.286Z,21.68
2019-06-07T00:16:39.273Z,22.00
2019-06-07T00:24:23.640Z,22.15
2019-06-07T00:29:32.608Z,23.27
2019-06-07T00:34:39.530Z,22.15
2019-06-07T00:37:14.227Z,22.80
2019-06-07T00:40:12.675Z,21.55
2019-06-07T00:42:24.639Z,21.12
2019-06-07T00:44:58.654Z,21.93
2019-06-07T00:47:32.675Z,22.30
2019-06-07T00:53:13.980Z,21.25
2019-06-07T00:55:19.590Z,22.62
2019-06-07T00:57:53.027Z,23.35
2019-06-07T01:03:00.575Z,23.18
2019-06-07T01:08:07.903Z,24.43
2019-06-07T01:10:52.969Z,24.35
2019-06-07T01:13:19.461Z,24.92
2019-06-07T01:15:53.435Z,25.00
2019-06-07T01:18:39.055Z,24.60
2019-06-07T01:21:02.901Z,23.83
2019-06-07T01:26:12.337Z,24.40
2019-06-07T01:28:46.414Z,23.45
2019-06-07T01:33:55.135Z,22.00
2019-06-07T01:36:31.031Z,23.62
2019-06-07T01:39:06.836Z,21.65
2019-06-07T01:41:40.623Z,23.10
2019-06-07T01:44:14.597Z,23.02
2019-06-07T01:46:48.525Z,23.75
2019-06-07T01:49:26.179Z,24.75
2019-06-07T01:51:58.182Z,23.22
2019-06-07T01:59:40.091Z,22.75
2019-06-07T02:02:14.021Z,22.90
2019-06-07T02:04:48.358Z,22.98
2019-06-07T02:07:26.457Z,22.20
2019-06-07T02:09:58.054Z,23.05
2019-06-07T02:17:43.425Z,25.05
2019-06-07T02:22:50.891Z,21.77
2019-06-07T02:28:25.812Z,21.15
2019-06-07T02:30:44.024Z,23.70
2019-06-07T02:33:10.805Z,24.37
2019-06-07T02:35:44.616Z,24.32
2019-06-07T02:38:18.491Z,25.65
2019-06-07T02:40:52.307Z,24.90
2019-06-07T02:43:28.228Z,27.25
2019-06-07T02:46:24.541Z,25.82
2019-06-07T02:48:40.106Z,24.63
2019-06-07T02:51:13.107Z,28.17
2019-06-07T02:53:46.996Z,26.57
2019-06-07T02:56:42.083Z,26.02
2019-06-07T02:58:56.637Z,25.88
2019-06-07T03:04:09.737Z,24.67
2019-06-07T03:06:44.264Z,27.70
2019-06-07T03:09:20.062Z,25.88
2019-06-07T03:11:56.399Z,26.35
2019-06-07T03:14:33.898Z,26.30
2019-06-07T03:17:22.492Z,25.77
2019-06-07T03:19:57.915Z,25.82
2019-06-07T03:22:37.967Z,26.48
2019-06-07T03:25:09.284Z,24.25
2019-06-07T03:32:54.511Z,29.20
2019-06-07T03:35:31.322Z,30.37
2019-06-07T03:38:03.951Z,29.45
2019-06-07T03:40:40.012Z,25.08
2019-06-07T03:43:13.393Z,28.65
2019-06-07T03:45:47.234Z,28.92
2019-06-07T03:48:21.124Z,28.25
2019-06-07T03:51:04.317Z,27.80
2019-06-07T03:53:31.136Z,28.52
2019-06-07T03:56:06.371Z,27.98
2019-06-07T03:58:49.042Z,27.87
2019-06-07T04:01:15.946Z,28.77
2019-06-07T04:03:51.651Z,28.50
2019-06-07T04:06:25.476Z,26.17
2019-06-07T04:08:59.419Z,26.80
2019-06-07T04:11:35.184Z,24.72
2019-06-07T04:14:08.862Z,23.45
2019-06-07T04:16:44.753Z,22.80
2019-06-07T04:19:18.287Z,22.00
2019-06-07T04:21:52.169Z,21.90
2019-06-07T04:24:26.024Z,20.08
2019-06-07T04:26:59.834Z,20.32
2019-06-07T04:29:47.834Z,20.77
2019-06-07T04:32:09.460Z,20.50
2019-06-07T04:37:18.031Z,21.07
2019-06-07T04:39:52.424Z,20.92
2019-06-07T04:42:30.022Z,20.27
2019-06-07T04:45:05.398Z,18.95
2019-06-07T04:47:42.413Z,19.50
2019-06-07T04:50:16.329Z,18.75
2019-06-07T04:52:50.076Z,19.12
2019-06-07T04:55:23.954Z,18.92
2019-06-07T05:00:56.485Z,20.75
2019-06-07T05:03:11.508Z,20.85
2019-06-07T05:08:27.991Z,20.68
2019-06-07T05:10:54.213Z,20.62
2019-06-07T05:16:01.620Z,20.92
2019-06-07T05:18:36.329Z,21.42
2019-06-07T05:21:11.062Z,22.62
2019-06-07T05:24:07.625Z,21.82
2019-06-07T05:26:20.640Z,22.17
2019-06-07T05:28:54.496Z,21.52
2019-06-07T05:34:01.761Z,20.72
2019-06-07T05:39:10.596Z,21.25
2019-06-07T05:44:18.708Z,21.50
2019-06-07T05:46:52.687Z,21.23
2019-06-07T05:51:59.841Z,21.48
2019-06-07T05:54:35.099Z,21.80
2019-06-07T05:57:09.423Z,22.48
2019-06-07T06:02:24.955Z,21.25
2019-06-07T06:04:53.720Z,21.87
2019-06-07T06:07:27.727Z,21.82
2019-06-07T06:10:01.633Z,21.95
2019-06-07T06:12:40.841Z,20.77
2019-06-07T06:15:11.505Z,20.00
2019-06-07T06:17:49.035Z,20.10
2019-06-07T06:20:21.318Z,20.27
2019-06-07T06:22:55.348Z,20.10
2019-06-07T06:30:40.975Z,18.95
2019-06-07T06:33:27.414Z,19.02
2019-06-07T06:35:51.033Z,17.98
2019-06-07T06:38:25.537Z,17.75
2019-06-07T06:41:15.454Z,16.77
2019-06-07T06:43:35.196Z,16.10
2019-06-07T06:46:09.008Z,16.97
2019-06-07T06:48:48.268Z,17.50
2019-06-07T06:51:18.718Z,17.40
2019-06-07T06:56:26.738Z,16.45
2019-06-07T07:01:35.520Z,15.72
2019-06-07T07:06:45.565Z,15.90
2019-06-07T07:09:19.579Z,16.90
2019-06-07T07:12:10.188Z,18.10
2019-06-07T07:14:29.194Z,18.00
2019-06-07T07:17:03.113Z,17.25
2019-06-07T07:22:10.428Z,15.90
2019-06-07T07:27:18.874Z,15.88
2019-06-07T07:30:29.260Z,15.50
2019-06-07T07:32:28.380Z,15.85
2019-06-07T07:35:02.362Z,15.90
2019-06-07T07:40:55.379Z,15.80
2019-06-07T07:42:46.905Z,15.18
2019-06-07T07:45:20.886Z,15.45
2019-06-07T07:53:03.101Z,15.78
2019-06-07T07:55:37.254Z,16.30
2019-06-07T07:58:11.204Z,16.00
2019-06-07T08:03:20.131Z,13.90
2019-06-07T08:05:58.373Z,13.48
2019-06-07T08:08:29.767Z,13.00
2019-06-07T08:11:03.889Z,13.78
2019-06-07T08:13:37.753Z,13.38
2019-06-07T08:16:16.140Z,13.55
2019-06-07T08:18:51.040Z,14.25
2019-06-07T08:21:26.648Z,14.25
2019-06-07T08:24:03.606Z,14.58
2019-06-07T08:26:34.328Z,13.70
2019-06-07T08:29:08.208Z,14.60
2019-06-07T08:31:42.355Z,14.93
2019-06-07T08:34:16.485Z,14.13
2019-06-07T08:36:52.255Z,13.93
2019-06-07T08:39:26.099Z,14.98
2019-06-07T08:42:14.877Z,14.35
2019-06-07T08:44:35.781Z,14.43
2019-06-07T08:47:19.762Z,15.05
2019-06-07T08:49:45.639Z,13.95
2019-06-07T08:52:19.613Z,14.73
2019-06-07T08:54:54.867Z,15.20
2019-06-07T08:57:29.171Z,14.30
2019-06-07T09:00:16.209Z,13.95
2019-06-07T09:02:39.497Z,14.35
2019-06-07T09:05:14.518Z,15.68
2019-06-07T09:07:48.395Z,14.65
2019-06-07T09:10:22.402Z,14.87
2019-06-07T09:13:03.086Z,13.95
2019-06-07T09:15:31.883Z,12.60
2019-06-07T09:20:49.594Z,12.68
2019-06-07T09:23:23.489Z,13.15
2019-06-07T09:26:12.886Z,13.00
2019-06-07T09:28:37.036Z,13.20
2019-06-07T09:31:12.751Z,12.98
2019-06-07T09:33:46.953Z,12.60
2019-06-07T09:36:21.216Z,12.55
2019-06-07T09:38:58.724Z,11.63
2019-06-07T09:41:46.723Z,12.28
2019-06-07T09:44:21.413Z,13.22
2019-06-07T09:46:42.861Z,13.48
2019-06-07T09:49:30.585Z,13.13
2019-06-07T09:51:52.861Z,12.95
2019-06-07T09:55:03.358Z,11.78
2019-06-07T09:57:05.326Z,11.63
2019-06-07T09:59:38.028Z,11.90
2019-06-07T10:02:13.575Z,12.10
2019-06-07T10:04:47.526Z,12.68
2019-06-07T10:07:31.155Z,14.20
2019-06-07T10:10:12.363Z,13.75
2019-06-07T10:12:32.888Z,13.48
2019-06-07T10:15:09.043Z,12.82
2019-06-07T10:17:43.014Z,14.15
2019-06-07T10:20:16.976Z,12.55
2019-06-07T10:22:51.304Z,12.07
2019-06-07T10:25:25.329Z,13.20
2019-06-07T10:27:59.998Z,13.35
2019-06-07T10:30:34.211Z,13.83
2019-06-07T10:33:08.563Z,14.20
2019-06-07T10:35:42.528Z,14.90
2019-06-07T10:38:16.485Z,14.90
2019-06-07T10:40:50.529Z,14.47
2019-06-07T10:43:24.527Z,14.98
2019-06-07T10:45:58.547Z,15.25
2019-06-07T10:48:32.366Z,14.95
2019-06-07T10:51:06.269Z,16.42
2019-06-07T10:53:40.075Z,15.63
2019-06-07T10:56:14.026Z,16.40
2019-06-07T10:58:47.999Z,16.55
2019-06-07T11:01:22.079Z,17.32
2019-06-07T11:03:57.186Z,17.35
2019-06-07T11:06:31.431Z,18.65
2019-06-07T11:09:08.000Z,17.75
2019-06-07T11:11:41.894Z,17.25
2019-06-07T11:14:15.806Z,18.32
2019-06-07T11:16:49.738Z,16.80
2019-06-07T11:19:23.732Z,18.65
2019-06-07T11:21:57.572Z,18.55
2019-06-07T11:27:06.707Z,16.50
2019-06-07T11:29:40.386Z,16.42
2019-06-07T11:37:21.987Z,17.15
2019-06-07T11:39:57.421Z,17.95
2019-06-07T11:42:31.261Z,18.02
2019-06-07T11:47:42.013Z,18.20
2019-06-07T11:50:16.083Z,18.65
2019-06-07T11:52:49.970Z,19.25
2019-06-07T11:57:56.928Z,18.20
2019-06-07T12:03:05.644Z,17.67
2019-06-07T12:05:39.595Z,17.95
2019-06-07T12:10:48.036Z,16.82
2019-06-07T12:15:55.166Z,16.67
2019-06-07T12:21:05.886Z,17.48
2019-06-07T12:23:40.015Z,18.48
2019-06-07T12:26:14.531Z,21.23
2019-06-07T12:28:48.825Z,19.00
2019-06-07T12:31:22.650Z,18.48
2019-06-07T12:33:56.672Z,18.80
2019-06-07T12:36:30.562Z,16.95
2019-06-07T12:39:06.034Z,16.40
2019-06-07T12:41:40.134Z,16.32
2019-06-07T12:44:14.550Z,16.17
2019-06-07T12:46:48.537Z,15.70
2019-06-07T12:49:23.597Z,16.37
2019-06-07T12:51:57.464Z,14.78
2019-06-07T12:54:31.442Z,17.00
2019-06-07T12:57:05.584Z,13.85
2019-06-07T12:59:39.487Z,14.30
2019-06-07T13:04:48.358Z,14.45
2019-06-07T13:07:22.904Z,14.07
2019-06-07T13:09:58.026Z,13.48
2019-06-07T13:12:32.123Z,13.88
2019-06-07T13:15:07.337Z,14.30
2019-06-07T13:17:41.238Z,15.05
2019-06-07T13:20:16.128Z,14.20
2019-06-07T13:22:50.102Z,14.45
2019-06-07T13:25:41.193Z,14.13
2019-06-07T13:28:00.016Z,15.43
2019-06-07T13:33:08.730Z,16.15
2019-06-07T13:38:29.066Z,15.58
2019-06-07T13:41:03.181Z,15.23
2019-06-07T13:43:37.089Z,14.80
2019-06-07T13:48:46.510Z,15.53
2019-06-07T13:51:22.737Z,15.58
2019-06-07T13:53:57.069Z,15.40
2019-06-07T13:56:31.031Z,14.90
2019-06-07T14:01:38.438Z,14.43
2019-06-07T14:04:12.586Z,13.28
2019-06-07T14:06:46.762Z,13.18
2019-06-07T14:09:21.173Z,12.30
2019-06-07T14:11:55.137Z,13.10
2019-06-07T14:17:08.493Z,11.48
2019-06-07T14:19:42.536Z,12.18
2019-06-07T14:22:16.732Z,12.60
2019-06-07T14:24:51.166Z,12.35
2019-06-07T14:27:25.520Z,12.33
2019-06-07T14:30:00.695Z,13.95
2019-06-07T14:32:34.876Z,12.88
2019-06-07T14:35:09.168Z,13.28
2019-06-07T14:37:43.270Z,11.20
2019-06-07T14:40:17.717Z,11.68
2019-06-07T14:42:51.686Z,12.58
2019-06-07T14:47:59.552Z,10.45
2019-06-07T14:53:06.800Z,10.45
2019-06-07T14:55:40.929Z,9.90
2019-06-07T14:58:14.943Z,9.90
2019-06-07T15:00:49.083Z,9.78
2019-06-07T15:03:23.226Z,10.20
2019-06-07T15:05:58.487Z,9.60
2019-06-07T15:08:33.035Z,9.13
2019-06-07T15:11:07.326Z,9.05
2019-06-07T15:13:41.424Z,9.55
2019-06-07T15:16:15.670Z,8.90
2019-06-07T15:18:49.661Z,8.98
2019-06-07T15:23:57.012Z,10.15
2019-06-07T15:29:04.876Z,10.43
2019-06-07T15:31:40.539Z,9.78
2019-06-07T15:34:14.706Z,9.00
2019-06-07T15:36:48.758Z,9.55
2019-06-07T15:41:56.284Z,9.78
2019-06-07T15:44:31.141Z,9.83
2019-06-07T15:47:05.322Z,9.53
2019-06-07T15:49:40.346Z,9.15
2019-06-07T15:52:14.634Z,9.15
2019-06-07T15:54:49.265Z,9.08
2019-06-07T15:57:24.544Z,8.60
2019-06-07T16:00:00.094Z,8.90
2019-06-07T16:02:35.644Z,9.85
2019-06-07T16:05:10.133Z,10.32
2019-06-07T16:07:44.584Z,9.10
2019-06-07T16:10:19.137Z,9.03
2019-06-07T16:13:00.157Z,9.13
2019-06-07T16:15:30.564Z,9.10
2019-06-07T16:18:06.139Z,10.38
2019-06-07T16:20:41.471Z,9.53
2019-06-07T16:23:15.767Z,10.35
2019-06-07T16:25:49.859Z,10.38
2019-06-07T16:28:23.886Z,10.35
2019-06-07T16:33:31.134Z,10.53
2019-06-07T16:38:38.470Z,10.35
2019-06-07T16:41:17.409Z,10.55
2019-06-07T16:43:52.654Z,10.93
2019-06-07T16:46:26.694Z,9.58
2019-06-07T16:49:00.529Z,10.53
2019-06-07T16:51:34.490Z,10.28
2019-06-07T16:54:08.512Z,10.43
2019-06-07T16:59:18.138Z,10.32
2019-06-07T17:01:52.593Z,10.13
2019-06-07T17:04:26.518Z,9.88
2019-06-07T17:09:33.788Z,10.95
2019-06-07T17:14:44.561Z,9.70
2019-06-07T17:17:18.550Z,11.30
2019-06-07T17:19:52.471Z,10.40
2019-06-07T17:24:59.523Z,9.40
2019-06-07T17:27:33.656Z,9.65
2019-06-07T17:30:10.080Z,9.70
2019-06-07T17:32:56.316Z,9.25
2019-06-07T17:35:19.869Z,9.15
2019-06-07T17:37:53.833Z,8.48
2019-06-07T17:40:27.713Z,8.80
2019-06-07T17:43:01.578Z,8.20
2019-06-07T17:45:35.392Z,7.92
2019-06-07T17:48:09.296Z,8.60
2019-06-07T17:53:17.725Z,8.45
2019-06-07T17:58:24.567Z,12.82
2019-06-07T18:00:58.411Z,10.85
2019-06-07T18:03:32.185Z,10.48
2019-06-07T18:06:06.143Z,11.53
2019-06-07T18:11:14.195Z,12.47
2019-06-07T18:13:48.361Z,11.25
2019-06-07T18:16:23.758Z,13.65
2019-06-07T18:18:57.681Z,13.08
2019-06-07T18:21:31.526Z,13.20
2019-06-07T18:24:05.681Z,14.83
2019-06-07T18:26:39.573Z,13.60
2019-06-07T18:29:13.478Z,13.90
2019-06-07T18:31:48.622Z,14.83
2019-06-07T18:34:22.566Z,13.62
2019-06-07T18:36:56.559Z,14.10
2019-06-07T18:42:03.740Z,15.38
2019-06-07T18:47:10.679Z,14.85
2019-06-07T18:49:44.743Z,15.20
2019-06-07T18:57:27.225Z,18.75
2019-06-07T19:02:40.131Z,19.23
2019-06-07T19:05:14.818Z,21.05
2019-06-07T19:07:48.754Z,20.75
2019-06-07T19:10:23.600Z,21.30
2019-06-07T19:13:00.286Z,23.90
2019-06-07T19:15:35.060Z,26.52
2019-06-07T19:18:09.205Z,30.00
2019-06-07T19:23:16.888Z,28.25
2019-06-07T19:25:50.662Z,32.67
2019-06-07T19:28:24.914Z,31.85
2019-06-07T19:30:59.230Z,33.05
2019-06-07T19:33:48.244Z,31.73
2019-06-07T19:36:09.290Z,32.63
2019-06-07T19:38:44.266Z,30.55
2019-06-07T19:41:20.098Z,27.82
2019-06-07T19:43:54.174Z,26.75
2019-06-07T19:49:03.006Z,26.87
2019-06-07T19:51:37.402Z,29.70
2019-06-07T19:54:11.328Z,28.87
2019-06-07T19:56:45.389Z,28.95
2019-06-07T20:01:53.838Z,30.45
2019-06-07T20:04:28.189Z,30.05
2019-06-07T20:07:03.898Z,29.23
2019-06-07T20:09:38.226Z,29.23
2019-06-07T20:12:12.137Z,30.05
2019-06-07T20:14:46.007Z,28.73
2019-06-07T20:17:20.306Z,28.65
2019-06-07T20:19:54.239Z,30.20
2019-06-07T20:22:28.345Z,29.85
2019-06-07T20:25:03.186Z,31.97
2019-06-07T20:27:37.436Z,32.20
2019-06-07T20:30:13.084Z,30.20
2019-06-07T20:32:46.934Z,32.13
2019-06-07T20:35:20.890Z,34.15
2019-06-07T20:37:56.763Z,32.85
2019-06-07T20:40:30.709Z,33.48
2019-06-07T20:43:05.690Z,31.17
2019-06-07T20:45:39.835Z,33.55
2019-06-07T20:48:14.034Z,31.55
2019-06-07T20:50:48.209Z,31.17
2019-06-07T20:53:22.591Z,32.05
2019-06-07T20:55:56.631Z,33.58
2019-06-07T21:01:05.470Z,34.18
2019-06-07T21:03:39.573Z,32.78
2019-06-07T21:08:46.981Z,33.45
2019-06-07T21:11:21.073Z,30.60
2019-06-07T21:16:28.158Z,33.42
2019-06-07T21:19:02.164Z,31.40
2019-06-07T21:21:36.270Z,31.57
2019-06-07T21:24:10.891Z,29.00
2019-06-07T21:26:44.936Z,29.05
2019-06-07T21:29:18.727Z,32.30
2019-06-07T21:31:52.844Z,30.12
2019-06-07T21:36:59.773Z,32.15
2019-06-07T21:39:33.605Z,31.20
2019-06-07T21:42:08.151Z,32.28
2019-06-07T21:44:42.155Z,31.30
2019-06-07T21:47:16.365Z,29.20
2019-06-07T21:49:50.759Z,28.32
2019-06-07T21:52:24.987Z,27.10
2019-06-07T21:54:59.002Z,25.37
2019-06-07T22:00:11.431Z,26.35
2019-06-07T22:02:46.117Z,28.15
2019-06-07T22:05:20.278Z,27.42
2019-06-07T22:10:27.560Z,29.60
2019-06-07T22:15:37.432Z,32.80
2019-06-07T22:18:10.832Z,33.60
2019-06-07T22:20:44.756Z,30.27
2019-06-07T22:23:18.623Z,29.45
2019-06-07T22:25:52.496Z,31.55
2019-06-07T22:28:26.328Z,29.48
2019-06-07T22:31:00.349Z,31.48
2019-06-07T22:36:11.065Z,33.05
2019-06-07T22:38:45.020Z,32.42
2019-06-07T22:41:18.930Z,33.63
2019-06-07T22:43:52.815Z,33.35
2019-06-07T22:46:36.985Z,33.78
2019-06-07T22:49:02.602Z,32.17
2019-06-07T22:54:09.701Z,29.55
2019-06-07T22:56:50.937Z,28.35
2019-06-07T22:59:24.755Z,27.98
2019-06-07T23:01:58.675Z,25.55
2019-06-07T23:04:32.789Z,24.32
2019-06-07T23:07:06.665Z,24.55
2019-06-07T23:09:40.461Z,25.85
2019-06-07T23:12:15.298Z,23.73
2019-06-07T23:14:49.173Z,25.20
2019-06-07T23:17:23.025Z,28.02
2019-06-07T23:19:56.935Z,29.72
2019-06-07T23:22:30.781Z,31.33
2019-06-07T23:25:06.816Z,30.05
2019-06-07T23:27:40.773Z,31.02
2019-06-07T23:30:14.980Z,32.25
2019-06-07T23:32:49.083Z,34.25
2019-06-07T23:35:23.000Z,34.20
2019-06-07T23:37:56.925Z,34.30
2019-06-07T23:40:30.779Z,33.35
2019-06-07T23:43:04.541Z,30.30
2019-06-07T23:45:38.383Z,33.38
2019-06-07T23:48:13.614Z,35.80
2019-06-07T23:50:47.653Z,35.20
2019-06-07T23:53:22.159Z,40.08
2019-06-07T23:55:56.333Z,40.23
2019-06-07T23:58:30.282Z,37.98
